createdAt,value
2023-05-27T00:01:50.732Z,13.90
2023-05-27T00:04:17.496Z,13.90
2023-05-27T00:06:44.226Z,13.80
2023-05-27T00:09:10.862Z,13.70
2023-05-27T00:11:37.488Z,13.70
2023-05-27T00:14:04.110Z,13.60
2023-05-27T00:16:32.451Z,13.60
2023-05-27T00:18:59.174Z,13.70
2023-05-27T00:21:25.830Z,13.70
2023-05-27T00:23:52.820Z,13.70
2023-05-27T00:26:19.616Z,13.60
2023-05-27T00:28:46.323Z,13.60
2023-05-27T00:31:12.885Z,13.70
2023-05-27T00:33:40.401Z,13.80
2023-05-27T00:36:07.171Z,13.70
2023-05-27T00:38:33.773Z,13.70
2023-05-27T00:41:02.420Z,13.60
2023-05-27T00:43:31.381Z,13.60
2023-05-27T00:45:58.123Z,13.60
2023-05-27T00:48:25.228Z,13.50
2023-05-27T00:50:52.134Z,13.40
2023-05-27T00:53:20.594Z,13.20
2023-05-27T00:55:48.048Z,13.10
2023-05-27T00:58:15.848Z,13.20
2023-05-27T01:00:42.606Z,13.20
2023-05-27T01:03:09.517Z,13.10
2023-05-27T01:05:36.153Z,13.20
2023-05-27T01:08:15.054Z,13.20
2023-05-27T01:10:51.744Z,13.10
2023-05-27T01:13:32.198Z,13.00
2023-05-27T01:16:02.278Z,13.00
2023-05-27T01:18:32.643Z,13.00
2023-05-27T01:21:06.616Z,13.00
2023-05-27T01:23:34.036Z,13.00
2023-05-27T01:26:01.503Z,13.00
2023-05-27T01:28:28.169Z,12.90
2023-05-27T01:31:06.139Z,12.80
2023-05-27T01:33:36.653Z,12.80
2023-05-27T01:36:08.543Z,12.80
2023-05-27T01:38:37.707Z,12.80
2023-05-27T01:41:04.458Z,12.80
2023-05-27T01:43:32.168Z,12.60
2023-05-27T01:45:58.941Z,12.80
2023-05-27T01:48:25.687Z,12.70
2023-05-27T01:50:52.274Z,12.80
2023-05-27T01:53:19.065Z,12.70
2023-05-27T01:55:46.761Z,12.60
2023-05-27T01:58:13.465Z,12.60
2023-05-27T02:00:40.723Z,12.50
2023-05-27T02:03:07.575Z,12.50
2023-05-27T02:05:34.448Z,12.40
2023-05-27T02:08:01.068Z,12.40
2023-05-27T02:10:27.689Z,12.30
2023-05-27T02:12:54.254Z,12.30
2023-05-27T02:15:24.405Z,12.40
2023-05-27T02:17:56.571Z,12.40
2023-05-27T02:20:23.784Z,12.30
2023-05-27T02:22:53.710Z,12.20
2023-05-27T02:25:20.551Z,12.40
2023-05-27T02:27:49.444Z,12.40
2023-05-27T02:30:16.949Z,12.30
2023-05-27T02:32:44.645Z,12.20
2023-05-27T02:35:15.604Z,12.10
2023-05-27T02:37:42.340Z,12.10
2023-05-27T02:40:12.088Z,12.00
2023-05-27T02:42:38.773Z,11.90
2023-05-27T02:45:05.867Z,12.00
2023-05-27T02:47:32.567Z,11.90
2023-05-27T02:49:59.333Z,11.80
2023-05-27T02:52:26.002Z,11.90
2023-05-27T02:54:52.648Z,12.00
2023-05-27T02:57:19.909Z,11.90
2023-05-27T02:59:46.639Z,11.90
2023-05-27T03:02:13.367Z,11.90
2023-05-27T03:04:40.518Z,11.80
2023-05-27T03:07:07.163Z,11.70
2023-05-27T03:09:33.797Z,11.60
2023-05-27T03:12:00.442Z,11.70
2023-05-27T03:14:27.041Z,11.80
2023-05-27T03:16:54.874Z,11.70
2023-05-27T03:19:21.940Z,11.50
2023-05-27T03:21:49.472Z,11.50
2023-05-27T03:24:17.299Z,11.60
2023-05-27T03:26:43.965Z,11.50
2023-05-27T03:29:10.603Z,11.30
2023-05-27T03:31:37.324Z,11.20
2023-05-27T03:34:03.891Z,11.30
2023-05-27T03:36:30.418Z,11.40
2023-05-27T03:38:57.561Z,11.40
2023-05-27T03:41:24.127Z,11.30
2023-05-27T03:43:50.881Z,11.40
2023-05-27T03:46:17.557Z,11.30
2023-05-27T03:48:44.167Z,11.30
2023-05-27T03:51:11.155Z,11.40
2023-05-27T03:53:37.781Z,11.40
2023-05-27T03:56:04.772Z,11.40
2023-05-27T03:58:31.473Z,11.50
2023-05-27T04:00:58.094Z,11.40
2023-05-27T04:03:24.928Z,11.50
2023-05-27T04:05:51.716Z,11.50
2023-05-27T04:08:18.371Z,11.50
2023-05-27T04:10:45.008Z,11.50
2023-05-27T04:13:11.699Z,11.50
2023-05-27T04:15:38.338Z,11.60
2023-05-27T04:18:05.187Z,11.50
2023-05-27T04:20:41.385Z,11.50
2023-05-27T04:23:08.411Z,11.60
2023-05-27T04:25:38.075Z,11.70
2023-05-27T04:28:05.216Z,11.70
2023-05-27T04:30:32.533Z,11.60
2023-05-27T04:33:00.355Z,11.70
2023-05-27T04:35:27.568Z,11.70
2023-05-27T04:37:54.267Z,11.70
2023-05-27T04:40:20.963Z,11.70
2023-05-27T04:42:48.639Z,11.90
2023-05-27T04:45:15.317Z,11.80
2023-05-27T04:47:42.166Z,11.70
2023-05-27T04:50:09.786Z,11.80
2023-05-27T04:52:39.335Z,11.80
2023-05-27T04:55:06.722Z,11.80
2023-05-27T04:57:34.132Z,11.80
2023-05-27T05:00:04.092Z,12.00
2023-05-27T05:02:37.377Z,12.00
2023-05-27T05:05:06.131Z,11.90
2023-05-27T05:07:34.268Z,11.90
2023-05-27T05:10:00.969Z,11.90
2023-05-27T05:12:27.886Z,12.00
2023-05-27T05:14:54.580Z,12.00
2023-05-27T05:17:25.303Z,12.00
2023-05-27T05:19:53.354Z,12.10
2023-05-27T05:22:23.336Z,12.10
2023-05-27T05:24:50.914Z,12.10
2023-05-27T05:27:17.729Z,12.20
2023-05-27T05:29:45.134Z,12.20
2023-05-27T05:32:12.772Z,12.20
2023-05-27T05:34:40.940Z,12.20
2023-05-27T05:37:07.704Z,12.40
2023-05-27T05:39:34.490Z,12.30
2023-05-27T05:42:01.228Z,12.40
2023-05-27T05:44:27.910Z,12.60
2023-05-27T05:46:54.573Z,12.60
2023-05-27T05:49:21.195Z,12.60
2023-05-27T05:51:47.826Z,12.70
2023-05-27T05:54:14.511Z,12.70
2023-05-27T05:56:41.284Z,12.90
2023-05-27T05:59:07.878Z,12.90
2023-05-27T06:01:34.616Z,13.00
2023-05-27T06:04:05.401Z,13.00
2023-05-27T06:06:32.396Z,13.00
2023-05-27T06:08:59.074Z,13.00
2023-05-27T06:11:27.246Z,13.20
2023-05-27T06:13:53.904Z,13.20
2023-05-27T06:16:20.613Z,13.30
2023-05-27T06:18:47.260Z,13.40
2023-05-27T06:21:13.878Z,13.50
2023-05-27T06:23:40.475Z,13.60
2023-05-27T06:26:07.100Z,13.70
2023-05-27T06:28:33.741Z,13.70
2023-05-27T06:31:00.393Z,13.70
2023-05-27T06:33:27.048Z,13.80
2023-05-27T06:35:53.683Z,14.00
2023-05-27T06:38:20.282Z,14.20
2023-05-27T06:40:47.195Z,14.30
2023-05-27T06:43:13.926Z,14.40
2023-05-27T06:45:51.897Z,14.40
2023-05-27T06:48:28.279Z,14.40
2023-05-27T06:50:54.916Z,14.60
2023-05-27T06:53:21.537Z,14.70
2023-05-27T06:55:48.121Z,14.90
2023-05-27T06:58:14.900Z,15.00
2023-05-27T07:00:41.549Z,15.00
2023-05-27T07:03:08.243Z,15.20
2023-05-27T07:05:35.038Z,15.20
2023-05-27T07:08:01.711Z,15.30
2023-05-27T07:10:28.434Z,15.30
2023-05-27T07:12:55.065Z,15.30
2023-05-27T07:15:21.698Z,15.50
2023-05-27T07:17:48.433Z,15.50
2023-05-27T07:20:15.578Z,15.60
2023-05-27T07:22:42.279Z,15.60
2023-05-27T07:25:09.622Z,15.70
2023-05-27T07:27:36.385Z,15.80
2023-05-27T07:30:04.092Z,15.90
2023-05-27T07:32:30.996Z,16.00
2023-05-27T07:34:57.763Z,16.10
2023-05-27T07:37:24.707Z,16.30
2023-05-27T07:39:54.125Z,16.40
2023-05-27T07:42:20.873Z,16.50
2023-05-27T07:44:47.536Z,16.50
2023-05-27T07:47:14.124Z,16.50
2023-05-27T07:49:42.293Z,16.60
2023-05-27T07:52:09.733Z,16.80
2023-05-27T07:54:43.548Z,16.90
2023-05-27T07:57:18.395Z,17.10
2023-05-27T07:59:45.038Z,17.00
2023-05-27T08:02:11.707Z,17.00
2023-05-27T08:04:38.331Z,17.10
2023-05-27T08:07:05.038Z,17.20
2023-05-27T08:09:33.264Z,17.30
2023-05-27T08:12:00.343Z,17.50
2023-05-27T08:14:28.539Z,17.60
2023-05-27T08:16:56.043Z,17.70
2023-05-27T08:19:22.739Z,17.90
2023-05-27T08:21:49.555Z,18.10
2023-05-27T08:24:16.159Z,18.40
2023-05-27T08:26:42.848Z,18.30
2023-05-27T08:29:09.545Z,18.40
2023-05-27T08:31:37.061Z,18.40
2023-05-27T08:34:04.068Z,18.30
2023-05-27T08:36:32.598Z,18.30
2023-05-27T08:38:59.402Z,18.60
2023-05-27T08:41:28.040Z,18.70
2023-05-27T08:44:02.225Z,18.80
2023-05-27T08:46:39.130Z,19.00
2023-05-27T08:49:08.698Z,19.00
2023-05-27T08:51:40.403Z,19.00
2023-05-27T08:54:08.498Z,19.10
2023-05-27T08:56:36.550Z,19.30
2023-05-27T08:59:03.367Z,19.30
2023-05-27T09:01:31.719Z,19.40
2023-05-27T09:03:58.505Z,19.10
2023-05-27T09:06:25.541Z,19.40
2023-05-27T09:08:52.345Z,19.50
2023-05-27T09:11:31.649Z,19.50
2023-05-27T09:13:58.446Z,19.70
2023-05-27T09:16:25.473Z,19.70
2023-05-27T09:18:52.364Z,19.80
2023-05-27T09:21:19.227Z,20.10
2023-05-27T09:23:46.495Z,20.10
2023-05-27T09:26:14.158Z,20.10
2023-05-27T09:28:41.200Z,20.20
2023-05-27T09:31:09.508Z,20.20
2023-05-27T09:33:40.319Z,20.40
2023-05-27T09:36:09.858Z,20.80
2023-05-27T09:38:37.253Z,20.70
2023-05-27T09:41:04.692Z,20.80
2023-05-27T09:43:31.593Z,21.00
2023-05-27T09:46:11.836Z,21.00
2023-05-27T09:48:39.309Z,20.90
2023-05-27T09:51:07.356Z,20.70
2023-05-27T09:53:36.581Z,20.80
2023-05-27T09:56:03.809Z,20.60
2023-05-27T09:58:31.272Z,20.80
2023-05-27T10:00:58.518Z,20.90
2023-05-27T10:03:25.313Z,20.90
2023-05-27T10:05:52.702Z,21.00
2023-05-27T10:10:50.096Z,21.10
2023-05-27T10:13:19.300Z,21.40
2023-05-27T10:15:51.608Z,21.70
2023-05-27T10:18:30.059Z,21.60
2023-05-27T10:21:00.936Z,21.30
2023-05-27T10:23:29.972Z,21.40
2023-05-27T10:26:02.270Z,21.50
2023-05-27T10:28:36.493Z,21.80
2023-05-27T10:31:06.454Z,21.80
2023-05-27T10:33:36.540Z,21.80
2023-05-27T10:36:18.266Z,22.00
2023-05-27T10:38:59.911Z,21.80
2023-05-27T10:41:27.869Z,22.00
2023-05-27T10:43:58.838Z,22.20
2023-05-27T10:46:26.782Z,22.40
2023-05-27T10:48:53.994Z,22.30
2023-05-27T10:51:20.689Z,22.40
2023-05-27T10:53:50.562Z,22.60
2023-05-27T10:56:26.895Z,22.40
2023-05-27T10:58:56.387Z,22.80
2023-05-27T11:01:26.830Z,23.10
2023-05-27T11:03:55.243Z,22.90
2023-05-27T11:06:22.208Z,22.90
2023-05-27T11:08:48.847Z,23.30
2023-05-27T11:11:18.915Z,23.50
2023-05-27T11:13:48.788Z,23.60
2023-05-27T11:16:16.855Z,23.40
2023-05-27T11:18:48.530Z,23.40
2023-05-27T11:21:19.813Z,23.40
2023-05-27T11:23:47.676Z,23.70
2023-05-27T11:26:25.077Z,23.70
2023-05-27T11:28:59.068Z,23.80
2023-05-27T11:31:30.403Z,24.00
2023-05-27T11:33:57.519Z,24.00
2023-05-27T11:36:27.785Z,24.10
2023-05-27T11:38:58.084Z,24.00
2023-05-27T11:41:27.968Z,24.20
2023-05-27T11:43:59.266Z,24.30
2023-05-27T11:46:39.234Z,24.00
2023-05-27T11:49:08.311Z,24.10
2023-05-27T11:51:39.229Z,24.00
2023-05-27T11:54:06.287Z,24.40
2023-05-27T11:56:33.322Z,24.50
2023-05-27T11:59:00.154Z,24.60
2023-05-27T12:01:27.408Z,24.50
2023-05-27T12:03:54.246Z,24.60
2023-05-27T12:06:24.254Z,24.90
2023-05-27T12:08:50.965Z,25.10
2023-05-27T12:11:17.744Z,24.80
2023-05-27T12:13:44.537Z,24.80
2023-05-27T12:16:12.060Z,25.20
2023-05-27T12:18:40.002Z,25.10
2023-05-27T12:21:06.679Z,25.10
2023-05-27T12:23:33.357Z,25.10
2023-05-27T12:26:00.312Z,25.10
2023-05-27T12:28:29.463Z,25.20
2023-05-27T12:30:56.774Z,25.30
2023-05-27T12:33:23.578Z,25.20
2023-05-27T12:35:50.632Z,25.40
2023-05-27T12:38:17.716Z,25.40
2023-05-27T12:40:44.521Z,25.30
2023-05-27T12:43:11.396Z,25.50
2023-05-27T12:45:37.995Z,25.80
2023-05-27T12:48:08.131Z,26.00
2023-05-27T12:50:35.803Z,25.80
2023-05-27T12:53:04.168Z,25.80
2023-05-27T12:55:30.826Z,25.90
2023-05-27T12:57:57.594Z,26.20
2023-05-27T13:00:24.446Z,26.50
2023-05-27T13:02:51.818Z,26.70
2023-05-27T13:05:19.318Z,26.80
2023-05-27T13:07:57.060Z,26.50
2023-05-27T13:10:24.134Z,26.40
2023-05-27T13:12:51.378Z,26.30
2023-05-27T13:15:18.312Z,26.70
2023-05-27T13:17:46.431Z,26.50
2023-05-27T13:20:14.460Z,26.90
2023-05-27T13:22:42.775Z,27.00
2023-05-27T13:25:09.641Z,26.60
2023-05-27T13:27:36.594Z,26.60
2023-05-27T13:30:04.334Z,26.80
2023-05-27T13:32:31.133Z,27.10
2023-05-27T13:34:58.187Z,27.10
2023-05-27T13:37:24.847Z,27.40
2023-05-27T13:39:51.514Z,27.50
2023-05-27T13:42:18.174Z,27.60
2023-05-27T13:44:44.762Z,27.80
2023-05-27T13:47:11.909Z,28.00
2023-05-27T13:49:38.547Z,28.20
2023-05-27T13:52:05.409Z,28.30
2023-05-27T13:54:32.155Z,28.20
2023-05-27T13:56:58.760Z,28.20
2023-05-27T13:59:25.404Z,28.20
2023-05-27T14:01:52.325Z,28.00
2023-05-27T14:04:18.996Z,28.40
2023-05-27T14:06:45.630Z,28.40
2023-05-27T14:09:12.333Z,28.40
2023-05-27T14:11:39.337Z,28.30
2023-05-27T14:14:06.371Z,28.10
2023-05-27T14:16:33.147Z,28.40
2023-05-27T14:18:59.787Z,28.60
2023-05-27T14:21:26.614Z,28.80
2023-05-27T14:23:53.387Z,28.70
2023-05-27T14:26:19.988Z,28.50
2023-05-27T14:28:46.661Z,28.90
2023-05-27T14:31:13.402Z,28.80
2023-05-27T14:33:40.226Z,28.80
2023-05-27T14:36:08.277Z,28.90
2023-05-27T14:38:34.951Z,28.80
2023-05-27T14:41:01.866Z,28.60
2023-05-27T14:43:28.628Z,28.90
2023-05-27T14:45:55.328Z,29.20
2023-05-27T14:48:21.997Z,29.70
2023-05-27T14:50:48.736Z,29.70
2023-05-27T14:53:15.640Z,29.50
2023-05-27T14:55:42.420Z,29.80
2023-05-27T14:58:09.215Z,29.70
2023-05-27T15:00:36.060Z,29.40
2023-05-27T15:03:02.742Z,29.30
2023-05-27T15:05:29.367Z,29.30
2023-05-27T15:07:55.968Z,29.20
2023-05-27T15:10:22.688Z,29.30
2023-05-27T15:12:49.408Z,29.30
2023-05-27T15:15:19.687Z,29.10
2023-05-27T15:17:46.542Z,29.80
2023-05-27T15:20:15.590Z,29.50
2023-05-27T15:22:42.473Z,29.60
2023-05-27T15:25:09.557Z,29.80
2023-05-27T15:27:36.298Z,29.80
2023-05-27T15:30:05.352Z,29.90
2023-05-27T15:32:33.286Z,29.40
2023-05-27T15:35:02.518Z,29.70
2023-05-27T15:37:29.443Z,29.60
2023-05-27T15:39:57.460Z,29.60
2023-05-27T15:42:25.237Z,29.60
2023-05-27T15:44:51.944Z,29.50
2023-05-27T15:47:18.711Z,29.50
2023-05-27T15:49:45.996Z,29.30
2023-05-27T15:52:13.691Z,29.10
2023-05-27T15:54:41.551Z,29.30
2023-05-27T15:57:09.208Z,29.20
2023-05-27T15:59:39.459Z,29.30
2023-05-27T16:02:07.473Z,29.20
2023-05-27T16:04:35.157Z,28.90
2023-05-27T16:07:03.898Z,29.00
2023-05-27T16:09:30.630Z,29.20
2023-05-27T16:11:57.308Z,29.10
2023-05-27T16:14:23.970Z,29.00
2023-05-27T16:16:51.234Z,28.60
2023-05-27T16:19:18.040Z,28.80
2023-05-27T16:21:47.185Z,28.90
2023-05-27T16:24:13.827Z,29.10
2023-05-27T16:26:40.803Z,28.90
2023-05-27T16:29:07.465Z,28.80
2023-05-27T16:31:34.252Z,28.90
2023-05-27T16:34:00.997Z,28.80
2023-05-27T16:36:27.908Z,28.50
2023-05-27T16:38:54.628Z,28.30
2023-05-27T16:41:22.865Z,27.90
2023-05-27T16:43:49.608Z,27.60
2023-05-27T16:46:16.484Z,27.30
2023-05-27T16:48:43.361Z,27.40
2023-05-27T16:51:10.169Z,27.20
2023-05-27T16:53:36.920Z,27.00
2023-05-27T16:56:04.056Z,26.90
2023-05-27T16:58:30.763Z,26.80
2023-05-27T17:01:01.822Z,26.70
2023-05-27T17:03:29.137Z,26.70
2023-05-27T17:05:57.717Z,26.50
2023-05-27T17:08:24.475Z,26.30
2023-05-27T17:10:51.774Z,26.30
2023-05-27T17:13:19.699Z,26.20
2023-05-27T17:15:47.028Z,26.10
2023-05-27T17:18:13.824Z,25.90
2023-05-27T17:20:41.037Z,25.70
2023-05-27T17:23:08.519Z,25.60
2023-05-27T17:25:35.296Z,25.50
2023-05-27T17:28:01.926Z,25.30
2023-05-27T17:30:28.593Z,25.10
2023-05-27T17:32:55.298Z,25.00
2023-05-27T17:35:23.351Z,24.90
2023-05-27T17:37:50.227Z,24.90
2023-05-27T17:40:16.993Z,24.70
2023-05-27T17:42:43.685Z,24.50
2023-05-27T17:45:10.635Z,24.40
2023-05-27T17:47:37.363Z,24.20
2023-05-27T17:50:04.549Z,24.10
2023-05-27T17:52:31.232Z,24.10
2023-05-27T17:54:58.024Z,24.00
2023-05-27T17:57:24.816Z,23.90
2023-05-27T17:59:51.491Z,23.80
2023-05-27T18:02:18.430Z,23.70
2023-05-27T18:04:45.241Z,23.60
2023-05-27T18:07:14.336Z,23.50
2023-05-27T18:09:41.041Z,23.50
2023-05-27T18:12:07.987Z,23.40
2023-05-27T18:14:35.602Z,23.30
2023-05-27T18:17:06.890Z,23.30
2023-05-27T18:19:34.049Z,23.10
2023-05-27T18:22:00.982Z,23.00
2023-05-27T18:24:27.843Z,22.90
2023-05-27T18:26:54.790Z,22.90
2023-05-27T18:29:28.154Z,22.80
2023-05-27T18:31:54.959Z,22.60
2023-05-27T18:34:21.618Z,22.60
2023-05-27T18:36:48.287Z,22.50
2023-05-27T18:39:15.118Z,22.40
2023-05-27T18:41:43.997Z,22.30
2023-05-27T18:44:11.125Z,22.20
2023-05-27T18:46:39.299Z,22.20
2023-05-27T18:49:11.967Z,22.00
2023-05-27T18:51:39.900Z,22.00
2023-05-27T18:54:09.107Z,21.90
2023-05-27T18:56:35.809Z,21.70
2023-05-27T18:59:02.528Z,21.80
2023-05-27T19:01:29.264Z,21.60
2023-05-27T19:03:55.980Z,21.50
2023-05-27T19:06:23.077Z,21.40
2023-05-27T19:08:50.029Z,21.40
2023-05-27T19:11:17.430Z,21.30
2023-05-27T19:13:44.131Z,21.10
2023-05-27T19:16:10.927Z,21.10
2023-05-27T19:18:37.887Z,21.00
2023-05-27T19:21:04.729Z,20.90
2023-05-27T19:23:31.343Z,20.90
2023-05-27T19:25:57.944Z,20.80
2023-05-27T19:28:24.589Z,20.80
2023-05-27T19:30:51.685Z,20.60
2023-05-27T19:33:18.510Z,20.60
2023-05-27T19:35:48.068Z,20.50
2023-05-27T19:38:15.561Z,20.30
2023-05-27T19:40:42.302Z,20.30
2023-05-27T19:43:09.134Z,20.20
2023-05-27T19:45:38.157Z,20.10
2023-05-27T19:48:04.977Z,20.00
2023-05-27T19:50:31.795Z,19.90
2023-05-27T19:52:59.671Z,19.90
2023-05-27T19:55:28.912Z,19.80
2023-05-27T19:57:55.943Z,19.70
2023-05-27T20:00:22.778Z,19.70
2023-05-27T20:02:49.580Z,19.50
2023-05-27T20:05:16.407Z,19.50
2023-05-27T20:07:43.398Z,19.40
2023-05-27T20:10:10.859Z,19.40
2023-05-27T20:12:39.209Z,19.40
2023-05-27T20:15:07.636Z,19.30
2023-05-27T20:17:35.031Z,19.30
2023-05-27T20:20:06.166Z,19.10
2023-05-27T20:22:32.860Z,19.10
2023-05-27T20:24:59.956Z,19.00
2023-05-27T20:27:26.799Z,19.00
2023-05-27T20:29:53.775Z,18.90
2023-05-27T20:32:20.632Z,18.80
2023-05-27T20:34:47.615Z,18.80
2023-05-27T20:37:15.639Z,18.70
2023-05-27T20:39:44.185Z,18.60
2023-05-27T20:42:11.672Z,18.70
2023-05-27T20:44:38.380Z,18.50
2023-05-27T20:47:05.230Z,18.50
2023-05-27T20:49:34.059Z,18.50
2023-05-27T20:52:01.058Z,18.40
2023-05-27T20:54:27.850Z,18.40
2023-05-27T20:56:55.965Z,18.30
2023-05-27T20:59:22.980Z,18.20
2023-05-27T21:01:49.825Z,18.10
2023-05-27T21:04:16.546Z,18.20
2023-05-27T21:06:43.224Z,18.20
2023-05-27T21:09:09.890Z,18.10
2023-05-27T21:11:37.729Z,18.00
2023-05-27T21:14:04.857Z,17.90
2023-05-27T21:16:31.512Z,18.00
2023-05-27T21:18:58.240Z,17.80
2023-05-27T21:21:25.408Z,17.80
2023-05-27T21:23:52.146Z,17.70
2023-05-27T21:26:18.808Z,17.80
2023-05-27T21:28:45.550Z,17.70
2023-05-27T21:31:13.337Z,17.60
2023-05-27T21:33:40.226Z,17.60
2023-05-27T21:36:07.246Z,17.60
2023-05-27T21:38:34.198Z,17.60
2023-05-27T21:41:00.900Z,17.60
2023-05-27T21:43:27.903Z,17.50
2023-05-27T21:45:55.046Z,17.50
2023-05-27T21:48:21.998Z,17.40
2023-05-27T21:50:48.879Z,17.40
2023-05-27T21:53:15.660Z,17.30
2023-05-27T21:55:42.771Z,17.30
2023-05-27T21:58:11.627Z,17.30
2023-05-27T22:00:39.642Z,17.20
2023-05-27T22:03:06.648Z,17.20
2023-05-27T22:05:36.736Z,17.10
2023-05-27T22:08:04.865Z,17.10
2023-05-27T22:10:32.011Z,17.10
2023-05-27T22:12:59.286Z,17.10
2023-05-27T22:15:26.152Z,17.00
2023-05-27T22:17:52.829Z,16.80
2023-05-27T22:20:19.661Z,17.00
2023-05-27T22:22:49.398Z,16.80
2023-05-27T22:25:16.575Z,16.80
2023-05-27T22:27:43.368Z,16.90
2023-05-27T22:30:10.916Z,16.90
2023-05-27T22:32:37.861Z,16.80
2023-05-27T22:35:06.039Z,16.60
2023-05-27T22:37:32.764Z,16.50
2023-05-27T22:39:59.400Z,16.40
2023-05-27T22:42:25.988Z,16.40
2023-05-27T22:44:52.637Z,16.20
2023-05-27T22:47:19.268Z,16.20
2023-05-27T22:49:45.961Z,16.20
2023-05-27T22:52:12.619Z,16.00
2023-05-27T22:54:39.637Z,16.10
2023-05-27T22:57:06.870Z,16.10
2023-05-27T22:59:33.483Z,16.00
2023-05-27T23:02:00.321Z,15.90
2023-05-27T23:04:27.240Z,16.00
2023-05-27T23:06:53.858Z,16.00
2023-05-27T23:09:20.461Z,16.00
2023-05-27T23:11:47.025Z,15.80
2023-05-27T23:14:13.647Z,15.80
2023-05-27T23:16:40.282Z,15.70
2023-05-27T23:19:07.446Z,15.70
2023-05-27T23:21:34.080Z,15.60
2023-05-27T23:24:00.820Z,15.60
2023-05-27T23:26:27.422Z,15.60
2023-05-27T23:28:54.038Z,15.50
2023-05-27T23:31:20.803Z,15.50
2023-05-27T23:33:47.399Z,15.40
2023-05-27T23:36:14.066Z,15.50
2023-05-27T23:38:40.734Z,15.50
2023-05-27T23:41:07.527Z,15.40
2023-05-27T23:43:34.126Z,15.40
2023-05-27T23:46:00.818Z,15.40
2023-05-27T23:48:27.892Z,15.30
2023-05-27T23:50:54.561Z,15.40
2023-05-27T23:53:21.166Z,15.40
2023-05-27T23:55:51.512Z,15.40
2023-05-27T23:58:18.583Z,15.40
